createdAt,value
2018-03-02T00:00:09.942Z,1007.58
2018-03-02T00:00:50.511Z,1007.6
2018-03-02T00:01:31.144Z,1007.55
2018-03-02T00:02:11.741Z,1007.53
2018-03-02T00:02:52.225Z,1007.54
2018-03-02T00:03:32.769Z,1007.53
2018-03-02T00:04:13.613Z,1007.53
2018-03-02T00:04:54.287Z,1007.47
2018-03-02T00:05:35.078Z,1007.5
2018-03-02T00:06:15.634Z,1007.49
2018-03-02T00:06:56.182Z,1007.45
2018-03-02T00:07:36.745Z,1007.5
2018-03-02T00:08:17.393Z,1007.43
2018-03-02T00:08:57.916Z,1007.47
2018-03-02T00:09:38.471Z,1007.42
2018-03-02T00:10:19.059Z,1007.42
2018-03-02T00:10:59.656Z,1007.45
2018-03-02T00:11:40.172Z,1007.5
2018-03-02T00:12:20.750Z,1007.42
2018-03-02T00:13:01.299Z,1007.42
2018-03-02T00:13:41.850Z,1007.45
2018-03-02T00:14:22.467Z,1007.46
2018-03-02T00:15:03.021Z,1007.48
2018-03-02T00:15:43.579Z,1007.44
2018-03-02T00:16:24.164Z,1007.46
2018-03-02T00:17:04.672Z,1007.45
2018-03-02T00:17:45.216Z,1007.42
2018-03-02T00:18:25.794Z,1007.41
2018-03-02T00:19:06.350Z,1007.43
2018-03-02T00:19:47.357Z,1007.37
2018-03-02T00:20:27.809Z,1007.42
2018-03-02T00:21:08.383Z,1007.43
2018-03-02T00:21:49.221Z,1007.41
2018-03-02T00:22:29.763Z,1007.4
2018-03-02T00:23:10.390Z,1007.44
2018-03-02T00:23:50.906Z,1007.43
2018-03-02T00:24:31.528Z,1007.39
2018-03-02T00:25:12.855Z,1007.39
2018-03-02T00:25:53.571Z,1007.33
2018-03-02T00:26:34.127Z,1007.42
2018-03-02T00:27:14.694Z,1007.36
2018-03-02T00:27:55.290Z,1007.3
2018-03-02T00:28:36.005Z,1007.31
2018-03-02T00:29:16.673Z,1007.32
2018-03-02T00:29:57.285Z,1007.3
2018-03-02T00:30:37.846Z,1007.32
2018-03-02T00:31:18.420Z,1007.31
2018-03-02T00:31:59.017Z,1007.31
2018-03-02T00:32:39.618Z,1007.3
2018-03-02T00:33:20.121Z,1007.28
2018-03-02T00:34:00.668Z,1007.31
2018-03-02T00:34:41.273Z,1007.29
2018-03-02T00:35:21.772Z,1007.24
2018-03-02T00:36:02.335Z,1007.28
2018-03-02T00:36:42.943Z,1007.27
2018-03-02T00:37:24.063Z,1007.24
2018-03-02T00:38:04.555Z,1007.26
2018-03-02T00:38:45.101Z,1007.22
2018-03-02T00:39:25.650Z,1007.15
2018-03-02T00:40:06.220Z,1007.17
2018-03-02T00:40:46.743Z,1007.17
2018-03-02T00:41:27.340Z,1007.15
2018-03-02T00:42:08.039Z,1007.17
2018-03-02T00:42:48.552Z,1007.1
2018-03-02T00:43:29.233Z,1007.08
2018-03-02T00:44:09.824Z,1007.08
2018-03-02T00:44:50.376Z,1007.12
2018-03-02T00:45:30.971Z,1007.16
2018-03-02T00:46:11.573Z,1007.11
2018-03-02T00:46:52.084Z,1007.13
2018-03-02T00:47:32.664Z,1007.1
2018-03-02T00:48:13.191Z,1007.06
2018-03-02T00:48:53.749Z,1007.06
2018-03-02T00:49:34.507Z,1007.05
2018-03-02T00:50:15.143Z,1007.06
2018-03-02T00:50:55.830Z,1007
2018-03-02T00:51:36.419Z,1007
2018-03-02T00:52:16.944Z,1006.97
2018-03-02T00:52:57.620Z,1007.01
2018-03-02T00:53:38.221Z,1006.97
2018-03-02T00:54:18.778Z,1006.99
2018-03-02T00:54:59.355Z,1006.96
2018-03-02T00:55:39.863Z,1006.95
2018-03-02T00:56:20.418Z,1006.95
2018-03-02T00:57:01.068Z,1006.88
2018-03-02T00:57:41.615Z,1006.91
2018-03-02T00:58:22.149Z,1006.92
2018-03-02T00:59:02.729Z,1006.98
2018-03-02T00:59:43.257Z,1006.94
2018-03-02T01:00:23.820Z,1006.93
2018-03-02T01:01:04.380Z,1006.94
2018-03-02T01:01:44.929Z,1006.91
2018-03-02T01:02:25.490Z,1006.89
2018-03-02T01:03:06.164Z,1006.93
2018-03-02T01:03:46.711Z,1006.94
2018-03-02T01:04:27.261Z,1006.92
2018-03-02T01:05:07.807Z,1006.91
2018-03-02T01:05:48.355Z,1006.84
2018-03-02T01:06:28.908Z,1006.83
2018-03-02T01:07:09.456Z,1006.81
2018-03-02T01:07:50.018Z,1006.78
2018-03-02T01:08:30.570Z,1006.81
2018-03-02T01:09:11.167Z,1006.76
2018-03-02T01:09:51.727Z,1006.73
2018-03-02T01:10:32.311Z,1006.76
2018-03-02T01:11:12.890Z,1006.82
2018-03-02T01:11:53.444Z,1006.73
2018-03-02T01:12:33.992Z,1006.74
2018-03-02T01:13:14.536Z,1006.69
2018-03-02T01:13:55.084Z,1006.73
2018-03-02T01:14:35.636Z,1006.61
2018-03-02T01:15:16.191Z,1006.71
2018-03-02T01:15:56.764Z,1006.7
2018-03-02T01:16:37.368Z,1006.72
2018-03-02T01:17:17.944Z,1006.75
2018-03-02T01:17:58.506Z,1006.67
2018-03-02T01:18:39.057Z,1006.69
2018-03-02T01:19:19.623Z,1006.67
2018-03-02T01:20:00.227Z,1006.67
2018-03-02T01:20:40.802Z,1006.63
2018-03-02T01:21:21.398Z,1006.64
2018-03-02T01:22:01.957Z,1006.7
2018-03-02T01:22:42.513Z,1006.63
2018-03-02T01:23:23.079Z,1006.64
2018-03-02T01:24:03.631Z,1006.63
2018-03-02T01:24:44.200Z,1006.6
2018-03-02T01:25:24.740Z,1006.62
2018-03-02T01:26:05.304Z,1006.59
2018-03-02T01:26:45.850Z,1006.52
2018-03-02T01:27:26.394Z,1006.55
2018-03-02T01:28:06.961Z,1006.57
2018-03-02T01:28:47.488Z,1006.51
2018-03-02T01:29:28.043Z,1006.5
2018-03-02T01:30:08.591Z,1006.51
2018-03-02T01:30:49.140Z,1006.49
2018-03-02T01:31:29.692Z,1006.47
2018-03-02T01:32:10.235Z,1006.4
2018-03-02T01:32:50.784Z,1006.43
2018-03-02T01:33:31.354Z,1006.44
2018-03-02T01:34:11.961Z,1006.34
2018-03-02T01:34:52.469Z,1006.37
2018-03-02T01:35:33.026Z,1006.38
2018-03-02T01:36:13.574Z,1006.36
2018-03-02T01:36:54.142Z,1006.33
2018-03-02T01:37:34.675Z,1006.31
2018-03-02T01:38:15.218Z,1006.25
2018-03-02T01:38:55.751Z,1006.27
2018-03-02T01:39:36.305Z,1006.27
2018-03-02T01:40:16.848Z,1006.27
2018-03-02T01:40:57.405Z,1006.29
2018-03-02T01:41:37.956Z,1006.26
2018-03-02T01:42:18.499Z,1006.2
2018-03-02T01:42:59.043Z,1006.26
2018-03-02T01:43:39.622Z,1006.28
2018-03-02T01:44:20.258Z,1006.26
2018-03-02T01:45:00.786Z,1006.23
2018-03-02T01:45:41.335Z,1006.22
2018-03-02T01:47:59.220Z,1006.18
2018-03-02T01:48:39.767Z,1006.22
2018-03-02T01:49:20.310Z,1006.18
2018-03-02T01:50:00.877Z,1006.18
2018-03-02T01:50:41.418Z,1006.13
2018-03-02T01:51:21.989Z,1006.18
2018-03-02T01:52:02.520Z,1006.13
2018-03-02T01:52:43.052Z,1006.13
2018-03-02T01:53:23.604Z,1006.1
2018-03-02T01:54:04.189Z,1006.13
2018-03-02T01:54:44.734Z,1006.12
2018-03-02T01:55:25.272Z,1006.1
2018-03-02T01:56:05.806Z,1006.12
2018-03-02T01:56:46.347Z,1006.11
2018-03-02T01:57:26.904Z,1006.06
2018-03-02T01:58:07.459Z,1006.06
2018-03-02T01:58:48.009Z,1006.07
2018-03-02T01:59:28.568Z,1006.09
2018-03-02T02:00:09.105Z,1006.08
2018-03-02T02:00:49.658Z,1006.06
2018-03-02T02:01:30.229Z,1006.05
2018-03-02T02:02:10.747Z,1006.05
2018-03-02T02:02:51.303Z,1006.02
2018-03-02T02:03:31.860Z,1006
2018-03-02T02:04:12.403Z,1006.01
2018-03-02T02:04:52.950Z,1005.96
2018-03-02T02:05:33.509Z,1005.98
2018-03-02T02:06:14.053Z,1005.91
2018-03-02T02:06:54.611Z,1005.94
2018-03-02T02:07:35.164Z,1005.88
2018-03-02T02:08:15.709Z,1005.89
2018-03-02T02:08:56.283Z,1005.81
2018-03-02T02:09:36.864Z,1005.81
2018-03-02T02:10:17.538Z,1005.79
2018-03-02T02:10:57.955Z,1005.78
2018-03-02T02:11:38.498Z,1005.76
2018-03-02T02:12:19.077Z,1005.74
2018-03-02T02:12:59.618Z,1005.75
2018-03-02T02:13:40.169Z,1005.73
2018-03-02T02:14:20.744Z,1005.74
2018-03-02T02:15:01.316Z,1005.72
2018-03-02T02:15:41.863Z,1005.69
2018-03-02T02:16:22.426Z,1005.63
2018-03-02T02:17:03.013Z,1005.7
2018-03-02T02:17:43.563Z,1005.7
2018-03-02T02:18:24.123Z,1005.71
2018-03-02T02:19:04.665Z,1005.67
2018-03-02T02:19:45.212Z,1005.65
2018-03-02T02:20:25.826Z,1005.66
2018-03-02T02:21:06.370Z,1005.61
2018-03-02T02:21:46.926Z,1005.62
2018-03-02T02:22:27.481Z,1005.64
2018-03-02T02:23:08.022Z,1005.59
2018-03-02T02:23:48.571Z,1005.64
2018-03-02T02:24:29.128Z,1005.62
2018-03-02T02:25:09.731Z,1005.6
2018-03-02T02:25:50.287Z,1005.65
2018-03-02T02:26:30.826Z,1005.58
2018-03-02T02:27:11.364Z,1005.58
2018-03-02T02:27:51.927Z,1005.57
2018-03-02T02:28:32.476Z,1005.57
2018-03-02T02:29:13.083Z,1005.56
2018-03-02T02:29:53.619Z,1005.51
2018-03-02T02:30:34.167Z,1005.47
2018-03-02T02:31:14.720Z,1005.48
2018-03-02T02:31:55.284Z,1005.5
2018-03-02T02:32:35.833Z,1005.45
2018-03-02T02:33:16.384Z,1005.5
2018-03-02T02:33:56.932Z,1005.49
2018-03-02T02:34:37.496Z,1005.4
2018-03-02T02:35:18.028Z,1005.48
2018-03-02T02:35:58.611Z,1005.45
2018-03-02T02:36:39.150Z,1005.4
2018-03-02T02:37:19.684Z,1005.42
2018-03-02T02:38:00.276Z,1005.46
2018-03-02T02:38:40.829Z,1005.44
2018-03-02T02:39:21.396Z,1005.45
2018-03-02T02:40:01.939Z,1005.42
2018-03-02T02:40:42.480Z,1005.44
2018-03-02T02:41:23.040Z,1005.4
2018-03-02T02:42:03.599Z,1005.44
2018-03-02T02:42:44.151Z,1005.5
2018-03-02T02:43:24.705Z,1005.42
2018-03-02T02:44:05.234Z,1005.42
2018-03-02T02:44:45.799Z,1005.43
2018-03-02T02:45:26.353Z,1005.45
2018-03-02T02:46:06.941Z,1005.49
2018-03-02T02:46:47.512Z,1005.45
2018-03-02T02:47:28.056Z,1005.42
2018-03-02T02:48:08.600Z,1005.43
2018-03-02T02:48:49.188Z,1005.43
2018-03-02T02:49:29.733Z,1005.42
2018-03-02T02:50:10.297Z,1005.41
2018-03-02T02:50:50.830Z,1005.44
2018-03-02T02:51:31.392Z,1005.47
2018-03-02T02:52:11.939Z,1005.5
2018-03-02T02:52:52.478Z,1005.46
2018-03-02T02:53:33.021Z,1005.47
2018-03-02T02:54:13.578Z,1005.46
2018-03-02T02:54:54.136Z,1005.46
2018-03-02T02:55:34.697Z,1005.48
2018-03-02T02:56:15.243Z,1005.43
2018-03-02T02:56:55.801Z,1005.47
2018-03-02T02:57:36.364Z,1005.42
2018-03-02T02:58:16.908Z,1005.38
2018-03-02T02:58:57.475Z,1005.41
2018-03-02T02:59:38.054Z,1005.45
2018-03-02T03:00:18.607Z,1005.45
2018-03-02T03:00:59.166Z,1005.43
2018-03-02T03:01:39.726Z,1005.37
2018-03-02T03:02:20.276Z,1005.41
2018-03-02T03:03:00.821Z,1005.39
2018-03-02T03:03:41.376Z,1005.37
2018-03-02T03:04:21.920Z,1005.37
2018-03-02T03:05:02.478Z,1005.42
2018-03-02T03:05:43.043Z,1005.42
2018-03-02T03:06:23.592Z,1005.39
2018-03-02T03:07:04.168Z,1005.43
2018-03-02T03:07:44.737Z,1005.4
2018-03-02T03:08:25.287Z,1005.35
2018-03-02T03:09:05.833Z,1005.31
2018-03-02T03:09:46.388Z,1005.38
2018-03-02T03:10:26.950Z,1005.36
2018-03-02T03:11:07.508Z,1005.35
2018-03-02T03:11:48.061Z,1005.35
2018-03-02T03:12:28.618Z,1005.35
2018-03-02T03:13:09.176Z,1005.33
2018-03-02T03:13:49.735Z,1005.3
2018-03-02T03:14:30.288Z,1005.36
2018-03-02T03:15:10.861Z,1005.32
2018-03-02T03:15:51.408Z,1005.34
2018-03-02T03:16:31.974Z,1005.35
2018-03-02T03:17:12.524Z,1005.3
2018-03-02T03:17:53.075Z,1005.33
2018-03-02T03:18:33.626Z,1005.29
2018-03-02T03:19:14.181Z,1005.27
2018-03-02T03:19:54.740Z,1005.31
2018-03-02T03:20:35.300Z,1005.29
2018-03-02T03:21:15.856Z,1005.25
2018-03-02T03:21:56.457Z,1005.31
2018-03-02T03:22:36.991Z,1005.31
2018-03-02T03:23:17.546Z,1005.3
2018-03-02T03:23:58.098Z,1005.27
2018-03-02T03:24:38.648Z,1005.26
2018-03-02T03:25:19.206Z,1005.26
2018-03-02T03:25:59.759Z,1005.27
2018-03-02T03:26:40.323Z,1005.28
2018-03-02T03:27:20.881Z,1005.25
2018-03-02T03:28:01.445Z,1005.26
2018-03-02T03:28:41.990Z,1005.18
2018-03-02T03:29:22.541Z,1005.19
2018-03-02T03:30:03.105Z,1005.23
2018-03-02T03:30:43.647Z,1005.22
2018-03-02T03:31:24.209Z,1005.18
2018-03-02T03:32:04.757Z,1005.13
2018-03-02T03:32:45.309Z,1005.16
2018-03-02T03:33:25.865Z,1005.14
2018-03-02T03:34:06.419Z,1005.16
2018-03-02T03:34:46.964Z,1005.12
2018-03-02T03:35:27.524Z,1005.13
2018-03-02T03:36:08.165Z,1005.17
2018-03-02T03:36:48.713Z,1005.14
2018-03-02T03:37:29.258Z,1005.14
2018-03-02T03:38:09.834Z,1005.13
2018-03-02T03:38:50.375Z,1005.14
2018-03-02T03:39:30.918Z,1005.09
2018-03-02T03:40:11.474Z,1005.17
2018-03-02T03:40:52.026Z,1005.14
2018-03-02T03:41:32.587Z,1005.16
2018-03-02T03:42:13.142Z,1005.13
2018-03-02T03:42:53.686Z,1005.08
2018-03-02T03:43:34.244Z,1005.14
2018-03-02T03:44:14.835Z,1005.06
2018-03-02T03:44:55.366Z,1005.1
2018-03-02T03:45:35.933Z,1005.03
2018-03-02T03:46:16.470Z,1005.06
2018-03-02T03:46:57.038Z,1005.08
2018-03-02T03:47:37.591Z,1005.05
2018-03-02T03:48:18.196Z,1005.08
2018-03-02T03:48:58.740Z,1005.11
2018-03-02T03:49:39.312Z,1005.07
2018-03-02T03:50:19.866Z,1005.03
2018-03-02T03:51:00.433Z,1005.05
2018-03-02T03:51:40.972Z,1005.05
2018-03-02T03:52:21.529Z,1005.02
2018-03-02T03:53:02.084Z,1005.04
2018-03-02T03:53:42.643Z,1005.01
2018-03-02T03:54:23.196Z,1005.03
2018-03-02T03:55:03.783Z,1005
2018-03-02T03:55:44.358Z,1004.98
2018-03-02T03:56:24.880Z,1004.99
2018-03-02T03:57:05.439Z,1004.95
2018-03-02T03:57:45.994Z,1004.95
2018-03-02T03:58:26.545Z,1004.97
2018-03-02T03:59:07.106Z,1004.96
2018-03-02T03:59:47.670Z,1004.95
2018-03-02T04:00:28.215Z,1004.94
2018-03-02T04:01:08.767Z,1004.93
2018-03-02T04:01:49.313Z,1004.97
2018-03-02T04:02:29.860Z,1004.93
2018-03-02T04:03:10.408Z,1004.92
2018-03-02T04:03:50.974Z,1004.95
2018-03-02T04:04:31.518Z,1004.88
2018-03-02T04:05:12.067Z,1004.86
2018-03-02T04:05:52.632Z,1004.86
2018-03-02T04:06:33.181Z,1004.86
2018-03-02T04:07:13.731Z,1004.83
2018-03-02T04:07:54.273Z,1004.88
2018-03-02T04:08:34.856Z,1004.8
2018-03-02T04:09:15.407Z,1004.84
2018-03-02T04:09:55.956Z,1004.78
2018-03-02T04:10:36.520Z,1004.82
2018-03-02T04:11:17.096Z,1004.82
2018-03-02T04:11:57.660Z,1004.8
2018-03-02T04:12:38.228Z,1004.81
2018-03-02T04:13:18.784Z,1004.82
2018-03-02T04:13:59.332Z,1004.82
2018-03-02T04:14:39.885Z,1004.76
2018-03-02T04:15:20.439Z,1004.8
2018-03-02T04:16:00.982Z,1004.81
2018-03-02T04:16:41.539Z,1004.8
2018-03-02T04:17:22.080Z,1004.83
2018-03-02T04:18:02.610Z,1004.87
2018-03-02T04:18:43.170Z,1004.84
2018-03-02T04:19:23.728Z,1004.78
2018-03-02T04:20:04.272Z,1004.82
2018-03-02T04:20:44.819Z,1004.83
2018-03-02T04:21:25.363Z,1004.85
2018-03-02T04:22:05.922Z,1004.82
2018-03-02T04:22:46.469Z,1004.81
2018-03-02T04:23:27.029Z,1004.83
2018-03-02T04:24:07.583Z,1004.82
2018-03-02T04:24:48.142Z,1004.79
2018-03-02T04:25:28.684Z,1004.77
2018-03-02T04:26:09.245Z,1004.76
2018-03-02T04:26:49.805Z,1004.68
2018-03-02T04:27:30.356Z,1004.71
2018-03-02T04:28:10.909Z,1004.7
2018-03-02T04:28:51.452Z,1004.71
2018-03-02T04:29:32.028Z,1004.69
2018-03-02T04:30:12.562Z,1004.67
2018-03-02T04:30:53.110Z,1004.65
2018-03-02T04:31:33.695Z,1004.68
2018-03-02T04:32:14.237Z,1004.65
2018-03-02T04:32:54.808Z,1004.63
2018-03-02T04:33:35.377Z,1004.64
2018-03-02T04:34:15.910Z,1004.68
2018-03-02T04:34:56.486Z,1004.65
2018-03-02T04:35:37.042Z,1004.67
2018-03-02T04:36:17.604Z,1004.62
2018-03-02T04:36:58.170Z,1004.66
2018-03-02T04:37:38.719Z,1004.62
2018-03-02T04:38:19.277Z,1004.67
2018-03-02T04:38:59.809Z,1004.59
2018-03-02T04:39:40.369Z,1004.6
2018-03-02T04:40:20.923Z,1004.59
2018-03-02T04:41:01.480Z,1004.62
2018-03-02T04:41:42.024Z,1004.59
2018-03-02T04:42:22.572Z,1004.58
2018-03-02T04:43:03.134Z,1004.59
2018-03-02T04:43:43.677Z,1004.58
2018-03-02T04:44:24.250Z,1004.57
2018-03-02T04:45:04.817Z,1004.55
2018-03-02T04:45:45.383Z,1004.49
2018-03-02T04:46:25.933Z,1004.56
2018-03-02T04:47:06.475Z,1004.52
2018-03-02T04:47:47.034Z,1004.56
2018-03-02T04:48:27.595Z,1004.51
2018-03-02T04:49:08.185Z,1004.54
2018-03-02T04:49:48.753Z,1004.5
2018-03-02T04:50:29.358Z,1004.53
2018-03-02T04:51:09.917Z,1004.49
2018-03-02T04:51:50.490Z,1004.46
2018-03-02T04:52:31.068Z,1004.49
2018-03-02T04:53:11.612Z,1004.49
2018-03-02T04:53:52.164Z,1004.47
2018-03-02T04:54:32.712Z,1004.55
2018-03-02T04:55:13.269Z,1004.47
2018-03-02T04:55:53.844Z,1004.47
2018-03-02T04:56:34.410Z,1004.47
2018-03-02T04:57:14.961Z,1004.48
2018-03-02T04:57:55.553Z,1004.53
2018-03-02T04:58:36.111Z,1004.48
2018-03-02T04:59:16.691Z,1004.46
2018-03-02T04:59:57.221Z,1004.46
2018-03-02T05:00:37.776Z,1004.46
2018-03-02T05:01:18.300Z,1004.43
2018-03-02T05:01:58.846Z,1004.45
2018-03-02T05:02:39.412Z,1004.42
2018-03-02T05:03:19.965Z,1004.38
2018-03-02T05:04:00.508Z,1004.41
2018-03-02T05:04:41.076Z,1004.42
2018-03-02T05:05:21.673Z,1004.4
2018-03-02T05:06:02.401Z,1004.4
2018-03-02T05:06:43.000Z,1004.41
2018-03-02T05:07:23.558Z,1004.42
2018-03-02T05:08:04.158Z,1004.39
2018-03-02T05:08:44.709Z,1004.43
2018-03-02T05:09:25.289Z,1004.4
2018-03-02T05:10:05.857Z,1004.38
2018-03-02T05:10:47.351Z,1004.39
2018-03-02T05:11:27.911Z,1004.38
2018-03-02T05:12:08.471Z,1004.4
2018-03-02T05:12:49.009Z,1004.42
2018-03-02T05:13:29.586Z,1004.43
2018-03-02T05:14:10.106Z,1004.38
2018-03-02T05:14:50.825Z,1004.36
2018-03-02T05:15:31.258Z,1004.41
2018-03-02T05:16:11.822Z,1004.41
2018-03-02T05:16:52.397Z,1004.36
2018-03-02T05:17:32.956Z,1004.39
2018-03-02T05:18:13.521Z,1004.4
2018-03-02T05:18:54.061Z,1004.37
2018-03-02T05:19:34.619Z,1004.39
2018-03-02T05:20:15.166Z,1004.4
2018-03-02T05:20:55.735Z,1004.32
2018-03-02T05:21:36.364Z,1004.38
2018-03-02T05:22:16.846Z,1004.36
2018-03-02T05:22:57.406Z,1004.37
2018-03-02T05:23:37.966Z,1004.36
2018-03-02T05:24:18.521Z,1004.38
2018-03-02T05:24:59.094Z,1004.33
2018-03-02T05:25:39.653Z,1004.35
2018-03-02T05:26:20.203Z,1004.32
2018-03-02T05:27:00.794Z,1004.33
2018-03-02T05:27:41.360Z,1004.33
2018-03-02T05:28:21.884Z,1004.34
2018-03-02T05:29:02.432Z,1004.31
2018-03-02T05:29:43.025Z,1004.31
2018-03-02T05:30:23.574Z,1004.27
2018-03-02T05:31:04.155Z,1004.3
2018-03-02T05:31:44.714Z,1004.26
2018-03-02T05:32:25.277Z,1004.27
2018-03-02T05:33:05.829Z,1004.25
2018-03-02T05:33:46.385Z,1004.29
2018-03-02T05:34:26.944Z,1004.27
2018-03-02T05:35:07.580Z,1004.3
2018-03-02T05:35:48.131Z,1004.27
2018-03-02T05:36:28.671Z,1004.28
2018-03-02T05:37:09.281Z,1004.28
2018-03-02T05:37:49.838Z,1004.26
2018-03-02T05:38:30.389Z,1004.3
2018-03-02T05:39:10.939Z,1004.3
2018-03-02T05:39:51.498Z,1004.23
2018-03-02T05:40:32.043Z,1004.29
2018-03-02T05:41:12.596Z,1004.24
2018-03-02T05:41:53.173Z,1004.22
2018-03-02T05:42:33.720Z,1004.24
2018-03-02T05:43:14.287Z,1004.21
2018-03-02T05:43:54.833Z,1004.19
2018-03-02T05:44:35.408Z,1004.21
2018-03-02T05:45:15.955Z,1004.26
2018-03-02T05:45:56.505Z,1004.22
2018-03-02T05:46:37.052Z,1004.2
2018-03-02T05:47:17.612Z,1004.2
2018-03-02T05:47:58.162Z,1004.18
2018-03-02T05:48:38.716Z,1004.17
2018-03-02T05:49:19.336Z,1004.15
2018-03-02T05:49:59.911Z,1004.16
2018-03-02T05:50:40.459Z,1004.17
2018-03-02T05:51:21.007Z,1004.24
2018-03-02T05:52:01.555Z,1004.19
2018-03-02T05:52:42.121Z,1004.18
2018-03-02T05:53:22.665Z,1004.14
2018-03-02T05:54:03.213Z,1004.23
2018-03-02T05:54:43.766Z,1004.16
2018-03-02T05:55:24.338Z,1004.15
2018-03-02T05:57:39.865Z,1004.13
2018-03-02T05:58:20.413Z,1004.17
2018-03-02T05:59:00.968Z,1004.12
2018-03-02T05:59:41.507Z,1004.2
2018-03-02T06:00:22.066Z,1004.17
2018-03-02T06:01:02.708Z,1004.13
2018-03-02T06:01:43.310Z,1004.16
2018-03-02T06:02:23.842Z,1004.16
2018-03-02T06:03:04.379Z,1004.14
2018-03-02T06:03:44.929Z,1004.13
2018-03-02T06:04:25.491Z,1004.13
2018-03-02T06:05:06.037Z,1004.21
2018-03-02T06:05:46.593Z,1004.17
2018-03-02T06:06:27.150Z,1004.16
2018-03-02T06:07:07.712Z,1004.19
2018-03-02T06:07:48.430Z,1004.21
2018-03-02T06:08:28.821Z,1004.24
2018-03-02T06:09:09.366Z,1004.2
2018-03-02T06:09:49.941Z,1004.2
2018-03-02T06:10:30.457Z,1004.23
2018-03-02T06:11:11.024Z,1004.2
2018-03-02T06:11:51.587Z,1004.2
2018-03-02T06:12:32.203Z,1004.21
2018-03-02T06:13:12.776Z,1004.22
2018-03-02T06:13:53.323Z,1004.21
2018-03-02T06:14:33.870Z,1004.25
2018-03-02T06:15:14.434Z,1004.21
2018-03-02T06:15:54.979Z,1004.24
2018-03-02T06:16:35.590Z,1004.16
2018-03-02T06:17:16.090Z,1004.21
2018-03-02T06:17:56.690Z,1004.24
2018-03-02T06:18:37.327Z,1004.17
2018-03-02T06:19:17.918Z,1004.26
2018-03-02T06:19:58.482Z,1004.2
2018-03-02T06:20:39.023Z,1004.23
2018-03-02T06:21:19.623Z,1004.22
2018-03-02T06:22:00.349Z,1004.18
2018-03-02T06:22:41.067Z,1004.22
2018-03-02T06:23:21.574Z,1004.25
2018-03-02T06:24:02.135Z,1004.26
2018-03-02T06:24:42.682Z,1004.22
2018-03-02T06:25:23.237Z,1004.24
2018-03-02T06:26:03.786Z,1004.29
2018-03-02T06:26:44.628Z,1004.25
2018-03-02T06:27:25.379Z,1004.19
2018-03-02T06:28:06.234Z,1004.23
2018-03-02T06:28:46.655Z,1004.19
2018-03-02T06:29:27.209Z,1004.19
2018-03-02T06:30:07.844Z,1004.21
2018-03-02T06:30:48.315Z,1004.17
2018-03-02T06:31:28.859Z,1004.17
2018-03-02T06:32:09.412Z,1004.18
2018-03-02T06:32:50.052Z,1004.2
2018-03-02T06:33:30.539Z,1004.15
2018-03-02T06:34:11.123Z,1004.13
2018-03-02T06:34:51.757Z,1004.11
2018-03-02T06:35:34.889Z,1004.14
2018-03-02T06:36:15.525Z,1004.09
2018-03-02T06:36:56.089Z,1004.11
2018-03-02T06:37:36.644Z,1004.07
2018-03-02T06:38:17.235Z,1004.04
2018-03-02T06:38:57.760Z,1004.04
2018-03-02T06:39:38.321Z,1004.03
2018-03-02T06:40:18.872Z,1004.04
2018-03-02T06:40:59.441Z,1004.03
2018-03-02T06:41:40.045Z,1004.04
2018-03-02T06:42:20.646Z,1004.04
2018-03-02T06:43:01.194Z,1004.09
2018-03-02T06:43:42.599Z,1004
2018-03-02T06:44:23.185Z,1004.07
2018-03-02T06:45:03.752Z,1004.02
2018-03-02T06:45:44.300Z,1004.04
2018-03-02T06:46:25.003Z,1004.04
2018-03-02T06:47:05.628Z,1004.02
2018-03-02T06:47:46.250Z,1003.98
2018-03-02T06:48:26.800Z,1004
2018-03-02T06:49:07.537Z,1003.96
2018-03-02T06:49:48.107Z,1003.94
2018-03-02T06:50:28.653Z,1003.88
2018-03-02T06:51:09.198Z,1003.9
2018-03-02T06:51:49.765Z,1003.9
2018-03-02T06:52:30.311Z,1003.91
2018-03-02T06:53:10.919Z,1003.91
2018-03-02T06:53:51.476Z,1003.87
2018-03-02T06:54:32.067Z,1003.85
2018-03-02T06:55:12.631Z,1003.9
2018-03-02T06:55:53.180Z,1003.89
2018-03-02T06:56:33.925Z,1003.86
2018-03-02T06:57:14.499Z,1003.86
2018-03-02T06:57:55.066Z,1003.84
2018-03-02T06:58:35.618Z,1003.91
2018-03-02T06:59:16.268Z,1003.89
2018-03-02T06:59:56.817Z,1003.89
2018-03-02T07:00:37.428Z,1003.89
2018-03-02T07:01:17.983Z,1003.89
2018-03-02T07:01:58.530Z,1003.85
2018-03-02T07:02:39.101Z,1003.89
2018-03-02T07:03:19.647Z,1003.84
2018-03-02T07:04:00.190Z,1003.87
2018-03-02T07:04:40.842Z,1003.8
2018-03-02T07:05:21.678Z,1003.84
2018-03-02T07:06:02.220Z,1003.85
2018-03-02T07:06:42.757Z,1003.76
2018-03-02T07:07:23.322Z,1003.73
2018-03-02T07:08:03.944Z,1003.77
2018-03-02T07:08:44.492Z,1003.74
2018-03-02T07:09:25.048Z,1003.72
2018-03-02T07:10:05.590Z,1003.79
2018-03-02T07:10:46.139Z,1003.81
2018-03-02T07:11:26.699Z,1003.8
2018-03-02T07:12:07.259Z,1003.82
2018-03-02T07:12:47.810Z,1003.79
2018-03-02T07:13:28.376Z,1003.8
2018-03-02T07:14:08.926Z,1003.83
2018-03-02T07:14:49.480Z,1003.81
2018-03-02T07:15:30.028Z,1003.84
2018-03-02T07:16:10.597Z,1003.74
2018-03-02T07:16:51.158Z,1003.74
2018-03-02T07:17:31.780Z,1003.78
2018-03-02T07:18:12.308Z,1003.71
2018-03-02T07:18:52.856Z,1003.73
2018-03-02T07:19:33.397Z,1003.72
2018-03-02T07:20:13.968Z,1003.72
2018-03-02T07:20:54.528Z,1003.67
2018-03-02T07:21:35.074Z,1003.67
2018-03-02T07:22:15.627Z,1003.69
2018-03-02T07:22:56.195Z,1003.7
2018-03-02T07:23:36.785Z,1003.69
2018-03-02T07:24:17.349Z,1003.67
2018-03-02T07:24:57.904Z,1003.67
2018-03-02T07:25:38.451Z,1003.6
2018-03-02T07:26:19.006Z,1003.59
2018-03-02T07:26:59.559Z,1003.59
2018-03-02T07:27:40.151Z,1003.54
2018-03-02T07:28:20.733Z,1003.54
2018-03-02T07:29:01.279Z,1003.56
2018-03-02T07:29:41.826Z,1003.57
2018-03-02T07:30:22.429Z,1003.57
2018-03-02T07:31:02.986Z,1003.55
2018-03-02T07:31:44.538Z,1003.55
2018-03-02T07:32:25.618Z,1003.55
2018-03-02T07:33:06.903Z,1003.56
2018-03-02T07:33:49.241Z,1003.51
2018-03-02T07:34:29.884Z,1003.53
2018-03-02T07:35:10.447Z,1003.52
2018-03-02T07:35:51.013Z,1003.53
2018-03-02T07:36:31.570Z,1003.49
2018-03-02T07:37:12.124Z,1003.46
2018-03-02T07:37:52.692Z,1003.42
2018-03-02T07:38:33.250Z,1003.37
2018-03-02T07:39:13.811Z,1003.4
2018-03-02T07:39:54.381Z,1003.4
2018-03-02T07:40:34.942Z,1003.34
2018-03-02T07:41:15.484Z,1003.41
2018-03-02T07:41:56.041Z,1003.39
2018-03-02T07:42:36.594Z,1003.37
2018-03-02T07:43:17.163Z,1003.39
2018-03-02T07:43:57.722Z,1003.34
2018-03-02T07:44:38.284Z,1003.35
2018-03-02T07:45:18.835Z,1003.38
2018-03-02T07:45:59.437Z,1003.38
2018-03-02T07:46:39.999Z,1003.41
2018-03-02T07:47:20.546Z,1003.38
2018-03-02T07:48:01.097Z,1003.36
2018-03-02T07:48:41.655Z,1003.44
2018-03-02T07:49:22.200Z,1003.43
2018-03-02T07:50:02.842Z,1003.38
2018-03-02T07:50:43.398Z,1003.43
2018-03-02T07:51:23.955Z,1003.41
2018-03-02T07:52:04.504Z,1003.45
2018-03-02T07:52:45.061Z,1003.48
2018-03-02T07:53:25.619Z,1003.59
2018-03-02T07:54:06.179Z,1003.65
2018-03-02T07:54:46.741Z,1003.64
2018-03-02T07:55:27.304Z,1003.66
2018-03-02T07:56:07.855Z,1003.68
2018-03-02T07:56:48.406Z,1003.65
2018-03-02T07:57:28.995Z,1003.68
2018-03-02T07:58:09.527Z,1003.7
2018-03-02T07:58:50.080Z,1003.63
2018-03-02T07:59:30.638Z,1003.68
2018-03-02T08:00:11.222Z,1003.64
2018-03-02T08:00:51.768Z,1003.71
2018-03-02T08:01:32.308Z,1003.63
2018-03-02T08:02:12.848Z,1003.67
2018-03-02T08:02:53.469Z,1003.56
2018-03-02T08:03:34.031Z,1003.69
2018-03-02T08:04:14.607Z,1003.62
2018-03-02T08:04:55.148Z,1003.79
2018-03-02T08:05:35.701Z,1003.79
2018-03-02T08:06:16.249Z,1003.82
2018-03-02T08:06:56.801Z,1003.8
2018-03-02T08:07:37.363Z,1003.71
2018-03-02T08:08:17.928Z,1003.55
2018-03-02T08:08:58.504Z,1003.57
2018-03-02T08:09:39.071Z,1003.57
2018-03-02T08:10:19.628Z,1003.54
2018-03-02T08:11:00.197Z,1003.53
2018-03-02T08:11:40.757Z,1003.56
2018-03-02T08:12:21.308Z,1003.61
2018-03-02T08:13:01.886Z,1003.59
2018-03-02T08:13:42.419Z,1003.6
2018-03-02T08:14:22.982Z,1003.56
2018-03-02T08:15:03.546Z,1003.57
2018-03-02T08:15:44.111Z,1003.53